Time;durP1;ratioP1;P1;durP2;ratioP2;P2;SDS_P1;SDS_P2;PMS_P1;PMS_P2;Temp;Humidity;BMP_temperature;BMP_pressure;BME280_temperature;BME280_humidity;BME280_pressure;Samples;Min_cycle;Max_cycle;Signal;HPM_P1;HPM_P2
2023/05/19 00:00:33;;;;;;;5.80;3.40;;;9.40;80.70;;;;;;5073766;28;20208;-62
2023/05/19 00:03:01;;;;;;;4.63;3.03;;;9.40;81.40;;;;;;5075040;28;20209;-62
2023/05/19 00:05:29;;;;;;;5.18;2.80;;;9.40;81.90;;;;;;5074160;28;20254;-62
2023/05/19 00:07:59;;;;;;;12.25;3.65;;;9.40;82.80;;;;;;5073991;28;20274;-63
2023/05/19 00:10:30;;;;;;;7.47;3.40;;;9.30;83.60;;;;;;5074060;28;20236;-63
2023/05/19 00:12:58;;;;;;;9.90;4.93;;;9.30;84.30;;;;;;5073734;28;20177;-63
2023/05/19 00:15:25;;;;;;;9.27;3.83;;;9.30;84.90;;;;;;5073406;28;20198;-63
2023/05/19 00:17:54;;;;;;;4.50;3.55;;;9.30;85.60;;;;;;5073295;28;20217;-63
2023/05/19 00:20:21;;;;;;;7.53;3.65;;;9.30;86.40;;;;;;5072921;28;20212;-63
2023/05/19 00:22:47;;;;;;;6.18;3.55;;;9.30;87.50;;;;;;5072801;28;20291;-62
2023/05/19 00:25:15;;;;;;;5.40;3.55;;;9.20;87.50;;;;;;5072916;28;20215;-63
2023/05/19 00:27:42;;;;;;;4.50;2.95;;;9.20;88.10;;;;;;5075068;28;20707;-63
2023/05/19 00:30:09;;;;;;;4.78;3.30;;;9.20;88.60;;;;;;5076954;28;20201;-65
2023/05/19 00:32:36;;;;;;;10.40;3.60;;;9.20;88.90;;;;;;5076937;28;20200;-63
2023/05/19 00:35:03;;;;;;;5.40;3.55;;;9.20;89.50;;;;;;5076702;28;20200;-62
2023/05/19 00:37:30;;;;;;;7.13;4.10;;;9.20;90.00;;;;;;5077024;28;20235;-62
2023/05/19 00:39:58;;;;;;;6.00;3.65;;;9.20;90.30;;;;;;5076981;28;20318;-63
2023/05/19 00:42:26;;;;;;;7.10;3.95;;;9.20;90.80;;;;;;5076925;28;20239;-62
2023/05/19 00:44:53;;;;;;;5.50;3.85;;;9.20;90.80;;;;;;5076459;28;20204;-63
2023/05/19 00:47:20;;;;;;;7.05;4.25;;;9.20;91.10;;;;;;5076342;28;20221;-63
2023/05/19 00:49:47;;;;;;;5.75;4.97;;;9.20;91.20;;;;;;5076357;28;20254;-63
2023/05/19 00:52:13;;;;;;;6.65;4.18;;;9.20;91.40;;;;;;5076578;28;20201;-63
2023/05/19 00:54:40;;;;;;;8.77;3.80;;;9.20;91.50;;;;;;5076539;28;20201;-62
2023/05/19 00:57:07;;;;;;;7.57;3.30;;;9.20;91.80;;;;;;5076148;28;20235;-63
2023/05/19 00:59:35;;;;;;;7.15;3.50;;;9.20;92.10;;;;;;5076534;28;20211;-63
2023/05/19 01:02:02;;;;;;;6.13;4.40;;;9.20;92.30;;;;;;5076478;28;20212;-63
2023/05/19 01:04:33;;;;;;;6.60;4.18;;;9.20;92.50;;;;;;5076458;28;20197;-63
2023/05/19 01:07:00;;;;;;;7.63;4.32;;;9.20;92.60;;;;;;5076225;28;20649;-62
2023/05/19 01:09:29;;;;;;;5.32;3.38;;;9.20;92.90;;;;;;5076250;28;20197;-61
2023/05/19 01:11:56;;;;;;;4.05;3.10;;;9.20;93.10;;;;;;5076111;28;20243;-62
2023/05/19 01:14:23;;;;;;;8.90;3.63;;;9.20;93.30;;;;;;5076115;28;20209;-62
2023/05/19 01:16:58;;;;;;;4.35;3.53;;;9.20;93.50;;;;;;5076052;28;20593;-62
2023/05/19 01:19:42;;;;;;;8.55;3.38;;;9.20;93.60;;;;;;5075833;28;20185;-62
2023/05/19 01:22:28;;;;;;;7.65;3.90;;;9.10;93.80;;;;;;5076394;28;20181;-62
2023/05/19 01:25:48;;;;;;;7.60;4.13;;;9.10;94.00;;;;;;5076557;28;20263;-61
2023/05/19 01:28:31;;;;;;;6.40;3.20;;;9.10;94.10;;;;;;4994222;28;20214;-63
2023/05/19 01:31:00;;;;;;;8.00;3.78;;;9.10;94.40;;;;;;4994106;28;20212;-62
2023/05/19 01:33:29;;;;;;;13.30;3.70;;;9.10;94.40;;;;;;5040667;28;20201;-63
2023/05/19 01:35:58;;;;;;;5.57;3.90;;;9.10;94.50;;;;;;5075992;28;20221;-63
2023/05/19 01:38:28;;;;;;;9.25;3.75;;;9.10;94.80;;;;;;5074720;28;20225;-62
2023/05/19 01:40:56;;;;;;;6.03;3.85;;;9.10;94.90;;;;;;5075660;28;20207;-62
2023/05/19 01:43:25;;;;;;;8.95;3.70;;;9.10;95.10;;;;;;5075742;28;20212;-63
2023/05/19 01:45:53;;;;;;;4.88;3.33;;;9.00;95.30;;;;;;5075144;28;20692;-62
2023/05/19 01:48:22;;;;;;;6.35;3.13;;;9.00;95.50;;;;;;5075549;28;20193;-63
2023/05/19 01:50:49;;;;;;;5.38;3.40;;;9.00;95.70;;;;;;5075651;28;20670;-63
2023/05/19 01:53:16;;;;;;;6.63;3.65;;;8.90;95.70;;;;;;5075766;28;20205;-64
2023/05/19 01:55:46;;;;;;;8.85;4.32;;;8.90;95.80;;;;;;5075799;28;20239;-62
2023/05/19 01:58:19;;;;;;;5.38;3.40;;;8.90;96.10;;;;;;5075845;28;20205;-63
2023/05/19 02:00:52;;;;;;;8.02;3.47;;;8.90;96.30;;;;;;5075791;28;20277;-62
2023/05/19 02:03:46;;;;;;;5.05;3.67;;;8.90;96.60;;;;;;5075780;28;20193;-63
2023/05/19 02:06:29;;;;;;;3.83;3.45;;;8.80;96.70;;;;;;5075731;28;20221;-63
2023/05/19 02:09:02;;;;;;;7.25;3.92;;;8.80;96.90;;;;;;5075300;28;20276;-63
2023/05/19 02:11:36;;;;;;;6.13;3.30;;;8.80;97.10;;;;;;5075552;28;20182;-64
2023/05/19 02:14:08;;;;;;;8.45;4.40;;;8.80;97.40;;;;;;5075144;28;20272;-62
2023/05/19 02:16:36;;;;;;;9.43;4.00;;;8.70;97.50;;;;;;5074723;28;20243;-62
2023/05/19 02:19:04;;;;;;;3.85;3.40;;;8.70;97.90;;;;;;5074777;28;20197;-63
2023/05/19 02:21:31;;;;;;;6.07;4.22;;;8.70;97.90;;;;;;5074629;28;20205;-62
2023/05/19 02:23:58;;;;;;;6.50;4.13;;;8.60;98.10;;;;;;5075110;28;20197;-62
2023/05/19 02:26:25;;;;;;;8.98;5.30;;;8.60;98.50;;;;;;5074793;28;20232;-63
2023/05/19 02:28:51;;;;;;;5.55;3.85;;;8.60;98.60;;;;;;5074452;28;20205;-63
2023/05/19 02:31:18;;;;;;;10.52;3.85;;;8.50;98.90;;;;;;5074504;28;20670;-62
2023/05/19 02:33:45;;;;;;;9.18;3.75;;;8.50;99.10;;;;;;5075499;28;20588;-63
2023/05/19 02:36:13;;;;;;;10.27;3.90;;;8.40;99.40;;;;;;5074554;28;20232;-62
2023/05/19 02:38:40;;;;;;;8.23;3.92;;;8.40;99.80;;;;;;5075093;28;20228;-63
2023/05/19 02:41:07;;;;;;;14.15;4.10;;;8.40;99.90;;;;;;5074560;28;20246;-63
2023/05/19 02:43:34;;;;;;;7.72;4.05;;;8.30;99.90;;;;;;5074401;28;20580;-63
2023/05/19 02:46:00;;;;;;;7.85;4.22;;;8.30;99.90;;;;;;5074525;28;20217;-64
2023/05/19 02:48:27;;;;;;;6.43;4.30;;;8.30;99.90;;;;;;5074640;28;20193;-63
2023/05/19 02:50:54;;;;;;;6.28;4.60;;;8.20;99.90;;;;;;5074109;28;20205;-63
2023/05/19 02:53:22;;;;;;;5.55;3.83;;;8.20;99.90;;;;;;5074688;28;20197;-63
2023/05/19 02:55:49;;;;;;;7.53;4.10;;;8.20;99.90;;;;;;5074366;28;20243;-63
2023/05/19 02:58:15;;;;;;;9.93;4.28;;;8.20;99.90;;;;;;5074584;28;20212;-61
2023/05/19 03:00:43;;;;;;;6.65;4.75;;;8.10;99.90;;;;;;5075452;28;20208;-62
2023/05/19 03:03:10;;;;;;;5.65;3.70;;;8.10;99.90;;;;;;5074522;28;20575;-63
2023/05/19 03:05:37;;;;;;;10.57;4.88;;;8.00;99.90;;;;;;5074901;28;20254;-62
2023/05/19 03:08:05;;;;;;;8.00;5.07;;;8.00;99.90;;;;;;5074878;28;20197;-62
2023/05/19 03:10:33;;;;;;;9.30;4.50;;;8.00;99.90;;;;;;5074384;28;20212;-62
2023/05/19 03:12:59;;;;;;;5.47;4.47;;;8.00;99.90;;;;;;5073766;28;20686;-62
2023/05/19 03:15:26;;;;;;;5.13;4.28;;;8.00;99.90;;;;;;5074789;28;20205;-63
2023/05/19 03:17:53;;;;;;;4.35;3.95;;;8.00;99.90;;;;;;5074536;28;20256;-61
2023/05/19 03:20:20;;;;;;;8.65;4.07;;;8.00;99.90;;;;;;5074514;28;20211;-62
2023/05/19 03:22:47;;;;;;;10.43;5.07;;;8.00;99.90;;;;;;5075437;28;20201;-62
2023/05/19 03:25:13;;;;;;;17.83;6.25;;;8.00;99.90;;;;;;5075612;28;20211;-61
2023/05/19 03:27:41;;;;;;;5.18;4.68;;;8.00;99.90;;;;;;5076252;28;20729;-63
2023/05/19 03:30:09;;;;;;;9.30;4.57;;;8.00;99.90;;;;;;5076477;28;20212;-63
2023/05/19 03:32:37;;;;;;;4.30;3.90;;;8.00;99.90;;;;;;5076858;28;20208;-62
2023/05/19 03:35:04;;;;;;;10.13;4.28;;;8.00;99.90;;;;;;5077541;28;20728;-64
2023/05/19 03:37:31;;;;;;;9.80;4.70;;;8.00;99.90;;;;;;5077034;28;20220;-63
2023/05/19 03:39:58;;;;;;;5.78;4.65;;;8.00;99.90;;;;;;5076075;28;20230;-62
2023/05/19 03:42:24;;;;;;;6.50;4.55;;;8.00;99.90;;;;;;5077005;28;20202;-62
2023/05/19 03:44:53;;;;;;;8.23;4.38;;;8.00;99.90;;;;;;5074597;28;20227;-62
2023/05/19 03:47:19;;;;;;;9.45;4.30;;;8.00;99.90;;;;;;5073101;28;20220;-63
2023/05/19 03:49:46;;;;;;;7.55;4.05;;;8.00;99.90;;;;;;5073573;28;20209;-63
2023/05/19 03:52:13;;;;;;;13.00;4.50;;;8.00;99.90;;;;;;5073513;28;20205;-63
2023/05/19 03:54:41;;;;;;;8.20;4.57;;;8.00;99.90;;;;;;5073876;28;20200;-62
2023/05/19 03:57:08;;;;;;;7.95;4.30;;;8.00;99.90;;;;;;5073180;28;20225;-62
2023/05/19 03:59:36;;;;;;;9.52;4.00;;;8.00;99.90;;;;;;5073316;28;20211;-62
2023/05/19 04:02:04;;;;;;;9.60;5.18;;;8.00;99.90;;;;;;5073656;28;20204;-64
2023/05/19 04:04:31;;;;;;;8.75;4.45;;;8.00;99.90;;;;;;5073194;28;20204;-63
2023/05/19 04:06:58;;;;;;;6.95;3.80;;;8.20;99.90;;;;;;5073416;28;20223;-63
2023/05/19 04:11:45;;;;;;;9.00;4.55;;;8.50;99.90;;;;;;5152338;27;20536;-64
2023/05/19 04:14:12;;;;;;;10.20;5.30;;;8.50;99.90;;;;;;5152288;27;20194;-64
2023/05/19 04:16:38;;;;;;;11.88;5.13;;;8.50;99.90;;;;;;5152128;27;20220;-64
2023/05/19 04:19:05;;;;;;;10.90;4.75;;;8.40;99.90;;;;;;5151882;27;20671;-63
2023/05/19 04:21:32;;;;;;;7.78;4.10;;;8.30;99.90;;;;;;5152033;27;20198;-64
2023/05/19 04:23:59;;;;;;;11.40;5.00;;;8.30;99.90;;;;;;5152035;27;20290;-64
2023/05/19 04:26:29;;;;;;;7.25;4.65;;;8.20;99.90;;;;;;5152218;27;20271;-65
2023/05/19 04:28:57;;;;;;;5.40;4.22;;;8.20;99.90;;;;;;5151973;27;20198;-63
2023/05/19 04:31:24;;;;;;;9.75;5.20;;;8.20;99.90;;;;;;5151645;27;20211;-63
2023/05/19 04:33:52;;;;;;;8.02;5.05;;;8.20;99.90;;;;;;5152615;27;20226;-64
2023/05/19 04:36:20;;;;;;;6.57;4.85;;;8.10;99.90;;;;;;5151818;27;20783;-64
2023/05/19 04:38:47;;;;;;;9.73;5.10;;;8.10;99.90;;;;;;5151752;27;20664;-62
2023/05/19 04:41:15;;;;;;;10.18;5.10;;;8.20;99.90;;;;;;5151889;27;20197;-63
2023/05/19 04:43:43;;;;;;;11.07;5.13;;;8.20;99.90;;;;;;5151486;27;20202;-65
2023/05/19 04:46:11;;;;;;;7.03;4.75;;;8.10;99.90;;;;;;5151579;27;20295;-65
2023/05/19 04:48:38;;;;;;;9.13;5.15;;;8.20;99.90;;;;;;5152103;27;20229;-61
2023/05/19 04:51:06;;;;;;;13.07;6.38;;;8.20;99.90;;;;;;5153841;27;20218;-62
2023/05/19 04:53:33;;;;;;;9.88;4.43;;;8.20;99.90;;;;;;5153307;27;20208;-62
2023/05/19 04:56:00;;;;;;;11.48;6.40;;;8.20;99.90;;;;;;5162138;22;20237;-66
2023/05/19 04:58:27;;;;;;;7.05;4.72;;;8.30;99.90;;;;;;5069866;28;20221;-65
2023/05/19 05:00:55;;;;;;;5.50;4.68;;;8.30;99.90;;;;;;5069073;28;20201;-65
2023/05/19 05:03:23;;;;;;;7.28;6.00;;;8.30;99.90;;;;;;5069634;28;20611;-64
2023/05/19 05:05:50;;;;;;;7.45;5.07;;;8.30;99.90;;;;;;5069641;28;20208;-64
2023/05/19 05:08:21;;;;;;;7.38;4.65;;;8.40;99.90;;;;;;5069957;28;20205;-64
2023/05/19 05:10:50;;;;;;;5.60;4.93;;;8.40;99.90;;;;;;5069634;28;20620;-64
2023/05/19 05:13:17;;;;;;;5.63;4.60;;;8.40;99.90;;;;;;5069377;28;20209;-64
2023/05/19 05:15:44;;;;;;;10.35;5.15;;;8.50;99.90;;;;;;5068940;28;20201;-64
2023/05/19 05:18:12;;;;;;;9.98;5.45;;;8.50;99.90;;;;;;5069450;28;20288;-65
2023/05/19 05:20:42;;;;;;;9.10;4.78;;;8.60;99.90;;;;;;5069237;28;20205;-64
2023/05/19 05:23:09;;;;;;;8.15;5.57;;;8.60;99.90;;;;;;5055214;28;20610;-64
2023/05/19 05:25:36;;;;;;;7.30;4.90;;;8.70;99.90;;;;;;5056054;28;20205;-65
2023/05/19 05:28:04;;;;;;;10.50;5.72;;;8.80;99.90;;;;;;5056157;28;20261;-64
2023/05/19 05:30:31;;;;;;;8.68;5.68;;;8.90;99.90;;;;;;5055939;28;20221;-65
2023/05/19 05:32:58;;;;;;;7.35;4.80;;;9.00;99.90;;;;;;5055934;28;20223;-64
2023/05/19 05:35:25;;;;;;;9.95;4.93;;;9.10;99.90;;;;;;5055999;28;20671;-62
2023/05/19 05:37:53;;;;;;;8.70;5.60;;;9.30;99.90;;;;;;5055948;28;20222;-64
2023/05/19 05:40:20;;;;;;;10.00;4.83;;;9.60;99.90;;;;;;5055746;28;20444;-64
2023/05/19 05:42:47;;;;;;;7.60;4.40;;;10.00;99.90;;;;;;5055553;28;20961;-64
2023/05/19 05:45:14;;;;;;;6.43;4.93;;;10.40;99.90;;;;;;5055541;28;20956;-64
2023/05/19 05:47:41;;;;;;;12.93;4.50;;;10.80;99.90;;;;;;5055336;28;21004;-63
2023/05/19 05:50:09;;;;;;;5.60;3.77;;;11.20;99.90;;;;;;5055624;28;20476;-63
2023/05/19 05:52:37;;;;;;;7.00;4.30;;;11.40;99.90;;;;;;5055371;28;20467;-63
2023/05/19 05:55:07;;;;;;;7.63;4.30;;;11.60;99.90;;;;;;5055004;28;20480;-63
2023/05/19 05:57:35;;;;;;;6.40;3.83;;;11.70;99.90;;;;;;5055054;28;20472;-65
2023/05/19 06:00:04;;;;;;;6.90;4.07;;;11.70;99.30;;;;;;5055386;28;20467;-64
2023/05/19 06:02:31;;;;;;;8.20;4.50;;;11.60;98.70;;;;;;5055706;28;20886;-65
2023/05/19 06:04:58;;;;;;;9.77;4.43;;;11.50;98.20;;;;;;5055446;28;20476;-64
2023/05/19 06:07:25;;;;;;;4.60;4.13;;;11.40;98.00;;;;;;5054869;28;20852;-65
2023/05/19 06:09:52;;;;;;;8.37;4.40;;;11.30;98.10;;;;;;5054972;28;20451;-64
2023/05/19 06:12:21;;;;;;;6.43;4.43;;;11.30;98.00;;;;;;5055047;28;20515;-65
2023/05/19 06:14:48;;;;;;;6.70;3.90;;;11.30;98.00;;;;;;5054728;28;20455;-65
2023/05/19 06:17:15;;;;;;;5.67;3.80;;;11.50;97.50;;;;;;5054759;28;20468;-65
2023/05/19 06:19:42;;;;;;;8.63;5.00;;;11.60;96.60;;;;;;5054695;28;20495;-65
2023/05/19 06:22:08;;;;;;;9.33;4.17;;;11.70;95.70;;;;;;5054767;28;20440;-64
2023/05/19 06:24:35;;;;;;;6.50;3.53;;;11.80;95.30;;;;;;5055015;28;20456;-64
2023/05/19 06:27:02;;;;;;;6.27;3.53;;;11.90;94.30;;;;;;5054370;28;20954;-64
2023/05/19 06:29:30;;;;;;;10.90;4.80;;;11.90;93.60;;;;;;5055281;28;20448;-65
2023/05/19 06:31:57;;;;;;;6.73;4.03;;;12.00;93.30;;;;;;5054533;28;20484;-65
2023/05/19 06:34:24;;;;;;;8.30;4.60;;;12.10;92.40;;;;;;5053240;28;20450;-65
2023/05/19 06:36:51;;;;;;;9.27;4.70;;;12.20;91.90;;;;;;5054135;28;20507;-64
2023/05/19 06:39:18;;;;;;;7.90;4.37;;;12.20;91.50;;;;;;5054357;28;20447;-64
2023/05/19 06:41:44;;;;;;;8.40;3.67;;;12.30;91.10;;;;;;5054250;28;20447;-65
2023/05/19 06:44:11;;;;;;;10.57;5.10;;;12.40;90.70;;;;;;5054785;28;20533;-64
2023/05/19 06:46:39;;;;;;;11.07;4.20;;;12.40;90.20;;;;;;5054276;28;20452;-65
2023/05/19 06:49:06;;;;;;;10.83;4.43;;;12.50;89.70;;;;;;5054548;28;20444;-64
2023/05/19 06:51:34;;;;;;;10.23;5.20;;;12.70;88.70;;;;;;5053897;28;20482;-64
2023/05/19 06:54:00;;;;;;;8.47;5.30;;;12.70;87.70;;;;;;5054792;28;20451;-65
2023/05/19 06:56:27;;;;;;;8.67;3.80;;;12.80;87.60;;;;;;5053757;28;20478;-65
2023/05/19 06:58:54;;;;;;;9.30;4.30;;;12.90;86.40;;;;;;5054722;28;20463;-63
2023/05/19 07:01:21;;;;;;;9.07;4.30;;;13.00;84.60;;;;;;5055681;28;20446;-63
2023/05/19 07:03:49;;;;;;;7.73;4.33;;;13.10;83.90;;;;;;5059414;28;20463;-65
2023/05/19 07:06:16;;;;;;;10.10;4.73;;;13.20;83.10;;;;;;5055896;28;20559;-64
2023/05/19 07:08:43;;;;;;;6.80;4.03;;;13.30;81.90;;;;;;5054406;28;20523;-65
2023/05/19 07:11:12;;;;;;;10.00;4.53;;;13.40;80.90;;;;;;5054135;28;20487;-65
2023/05/19 07:13:39;;;;;;;10.63;4.17;;;13.50;80.00;;;;;;5054795;28;20433;-65
2023/05/19 07:16:06;;;;;;;6.93;4.60;;;13.50;79.80;;;;;;5055140;28;20468;-64
2023/05/19 07:18:34;;;;;;;8.97;3.77;;;13.70;79.00;;;;;;5054825;28;20856;-65
2023/05/19 07:21:02;;;;;;;13.53;4.67;;;13.80;78.60;;;;;;5054824;28;20452;-65
2023/05/19 07:23:29;;;;;;;9.00;3.53;;;13.80;77.00;;;;;;5054077;28;20547;-65
2023/05/19 07:25:56;;;;;;;8.60;3.60;;;13.90;76.40;;;;;;5054061;28;20448;-65
2023/05/19 07:28:23;;;;;;;13.27;5.20;;;13.90;75.90;;;;;;5053692;28;20455;-65
2023/05/19 07:30:49;;;;;;;5.67;3.70;;;14.10;75.30;;;;;;5053534;28;20515;-64
2023/05/19 07:33:16;;;;;;;6.70;3.70;;;14.30;74.20;;;;;;5053568;28;20450;-64
2023/05/19 07:35:44;;;;;;;3.70;3.27;;;14.40;73.40;;;;;;5053486;28;20444;-65
2023/05/19 07:38:12;;;;;;;4.20;3.00;;;14.40;71.80;;;;;;5053817;28;20470;-64
2023/05/19 07:40:39;;;;;;;5.30;3.13;;;14.40;70.80;;;;;;5053564;28;20456;-65
2023/05/19 07:43:06;;;;;;;4.60;2.90;;;14.50;70.10;;;;;;5052901;28;20444;-64
2023/05/19 07:45:32;;;;;;;5.23;2.93;;;14.60;69.30;;;;;;5052385;28;20816;-64
2023/05/19 07:47:59;;;;;;;12.50;3.40;;;14.70;68.30;;;;;;5053532;28;20476;-65
2023/05/19 07:50:26;;;;;;;8.43;2.80;;;14.80;67.40;;;;;;5053390;28;20440;-64
2023/05/19 07:52:53;;;;;;;7.97;3.13;;;14.90;66.60;;;;;;5054290;28;20544;-64
2023/05/19 07:55:21;;;;;;;9.70;3.60;;;15.00;66.10;;;;;;5054669;28;20519;-64
2023/05/19 07:57:49;;;;;;;7.10;3.13;;;15.10;65.40;;;;;;5054080;28;20483;-64
2023/05/19 08:00:16;;;;;;;6.40;3.33;;;15.30;65.00;;;;;;5054148;28;20448;-64
2023/05/19 08:02:43;;;;;;;7.40;3.90;;;15.40;63.70;;;;;;5054016;28;20440;-65
2023/05/19 08:05:10;;;;;;;8.73;3.53;;;15.50;63.20;;;;;;5053215;28;20840;-65
2023/05/19 08:07:37;;;;;;;10.37;2.80;;;15.70;62.50;;;;;;5052840;28;20464;-65
2023/05/19 08:10:04;;;;;;;9.63;3.80;;;15.80;61.90;;;;;;5052916;28;20448;-64
2023/05/19 08:12:32;;;;;;;4.60;3.10;;;15.90;61.20;;;;;;5053549;28;20491;-64
2023/05/19 08:14:59;;;;;;;8.00;3.50;;;16.00;60.40;;;;;;5053475;28;20456;-65
2023/05/19 08:17:26;;;;;;;7.13;3.07;;;16.10;59.70;;;;;;5053470;28;20470;-64
2023/05/19 08:19:53;;;;;;;7.83;2.90;;;16.20;59.00;;;;;;5053151;28;20436;-65
2023/05/19 08:22:20;;;;;;;5.53;3.10;;;16.20;58.70;;;;;;5053007;28;20432;-65
2023/05/19 08:24:48;;;;;;;8.07;3.30;;;16.30;58.10;;;;;;5052709;28;20823;-64
2023/05/19 08:27:15;;;;;;;7.27;3.03;;;16.40;57.80;;;;;;5052617;28;20505;-64
2023/05/19 08:29:43;;;;;;;5.30;2.73;;;16.40;57.10;;;;;;5052712;28;21085;-64
2023/05/19 08:32:10;;;;;;;7.27;2.90;;;16.40;56.80;;;;;;5053180;28;20476;-65
2023/05/19 08:34:37;;;;;;;6.50;2.60;;;16.50;56.40;;;;;;5052936;28;20468;-63
2023/05/19 08:37:04;;;;;;;3.70;2.40;;;16.60;56.10;;;;;;5053114;28;20551;-64
2023/05/19 08:39:33;;;;;;;4.63;2.80;;;16.70;55.10;;;;;;5053074;28;20483;-64
2023/05/19 08:42:00;;;;;;;7.47;2.40;;;16.80;54.40;;;;;;5053737;28;20474;-65
2023/05/19 08:44:27;;;;;;;6.70;2.57;;;16.80;53.90;;;;;;5053975;28;20909;-64
2023/05/19 08:46:56;;;;;;;6.03;2.20;;;16.80;53.30;;;;;;5053195;28;21005;-63
2023/05/19 08:49:27;;;;;;;7.40;3.20;;;16.80;52.40;;;;;;5053463;28;20451;-63
2023/05/19 08:52:00;;;;;;;6.23;2.77;;;16.80;52.20;;;;;;5053098;28;20472;-64
2023/05/19 08:54:33;;;;;;;10.93;3.03;;;16.90;52.20;;;;;;5052682;28;20428;-66
2023/05/19 08:57:02;;;;;;;4.10;2.80;;;17.00;51.80;;;;;;5054683;28;20472;-65
2023/05/19 08:59:30;;;;;;;5.47;3.27;;;17.10;51.10;;;;;;5057396;28;20528;-65
2023/05/19 09:01:58;;;;;;;4.07;2.40;;;17.10;50.50;;;;;;5057471;28;20448;-64
2023/05/19 09:04:26;;;;;;;7.07;2.23;;;17.20;50.40;;;;;;5057814;28;20529;-64
2023/05/19 09:06:53;;;;;;;4.37;2.63;;;17.30;50.10;;;;;;5056993;28;21001;-65
2023/05/19 09:09:21;;;;;;;4.33;2.70;;;17.40;49.90;;;;;;5057048;28;20466;-64
2023/05/19 09:11:47;;;;;;;5.37;2.87;;;17.50;49.90;;;;;;5057514;28;20802;-64
2023/05/19 09:14:14;;;;;;;4.87;2.50;;;17.60;49.80;;;;;;5057777;28;20448;-64
2023/05/19 09:16:42;;;;;;;5.63;2.63;;;17.70;49.80;;;;;;5057993;28;20467;-64
2023/05/19 09:19:15;;;;;;;5.13;2.30;;;17.80;49.70;;;;;;5058078;28;20444;-64
2023/05/19 09:21:42;;;;;;;5.27;2.50;;;17.80;49.20;;;;;;5057526;28;20509;-63
2023/05/19 09:24:09;;;;;;;2.90;2.37;;;18.00;49.20;;;;;;5055699;28;20847;-62
2023/05/19 09:26:38;;;;;;;4.67;2.50;;;18.20;49.10;;;;;;5056035;28;20468;-63
2023/05/19 09:29:11;;;;;;;4.23;2.30;;;18.40;48.90;;;;;;5056204;28;20660;-64
2023/05/19 09:31:38;;;;;;;5.63;2.90;;;18.40;47.70;;;;;;5055677;28;20464;-63
2023/05/19 09:34:11;;;;;;;6.97;3.20;;;18.40;47.70;;;;;;5055301;28;21034;-64
2023/05/19 09:36:39;;;;;;;4.30;2.50;;;18.50;47.60;;;;;;5056108;28;20464;-64
2023/05/19 09:39:13;;;;;;;7.43;3.00;;;18.50;47.30;;;;;;5056132;28;20444;-64
2023/05/19 09:41:40;;;;;;;7.53;3.37;;;18.50;46.70;;;;;;5055859;28;20435;-64
2023/05/19 09:44:07;;;;;;;6.13;4.83;;;18.50;46.40;;;;;;5055706;28;20452;-64
2023/05/19 09:46:34;;;;;;;7.70;3.10;;;18.60;46.40;;;;;;5055733;28;20468;-64
2023/05/19 09:49:10;;;;;;;6.53;3.07;;;18.80;46.40;;;;;;5055500;28;20451;-64
2023/05/19 09:51:37;;;;;;;6.23;3.50;;;19.10;46.00;;;;;;5055165;28;20957;-64
2023/05/19 09:54:04;;;;;;;6.07;3.70;;;19.10;45.30;;;;;;5055185;28;20461;-64
2023/05/19 09:56:34;;;;;;;4.27;2.80;;;19.10;45.10;;;;;;5055576;28;21000;-63
2023/05/19 09:59:02;;;;;;;5.60;3.23;;;19.00;45.10;;;;;;5055245;28;20539;-64
2023/05/19 10:01:32;;;;;;;6.90;2.97;;;19.00;45.30;;;;;;5055746;28;20569;-63
2023/05/19 10:04:00;;;;;;;3.80;3.10;;;19.20;45.30;;;;;;5055351;28;20444;-64
2023/05/19 10:06:28;;;;;;;7.63;3.17;;;19.30;44.70;;;;;;5055428;28;20550;-64
2023/05/19 10:08:56;;;;;;;5.63;2.33;;;19.30;44.60;;;;;;5055074;28;20632;-64
2023/05/19 10:11:24;;;;;;;2.60;2.30;;;19.40;44.20;;;;;;5055277;28;20444;-65
2023/05/19 10:13:51;;;;;;;5.43;3.20;;;19.60;43.30;;;;;;5055336;28;20481;-64
2023/05/19 10:16:20;;;;;;;6.50;3.40;;;19.70;43.20;;;;;;5054963;28;20822;-64
2023/05/19 10:18:49;;;;;;;3.60;2.67;;;19.80;43.10;;;;;;5054950;28;20531;-64
2023/05/19 10:21:17;;;;;;;6.03;2.60;;;19.80;43.00;;;;;;5055204;28;20527;-65
2023/05/19 10:23:46;;;;;;;4.40;2.47;;;19.80;42.80;;;;;;5055010;28;20895;-63
2023/05/19 10:26:13;;;;;;;5.40;2.43;;;19.80;42.70;;;;;;5054878;28;20480;-64
2023/05/19 10:28:44;;;;;;;4.00;2.37;;;20.00;42.60;;;;;;5054843;28;20449;-64
2023/05/19 10:31:16;;;;;;;6.83;2.40;;;20.20;41.80;;;;;;5055104;28;20443;-63
2023/05/19 10:34:01;;;;;;;3.37;2.27;;;20.30;41.50;;;;;;5054786;28;20452;-64
2023/05/19 10:36:43;;;;;;;3.17;2.00;;;20.30;41.50;;;;;;5055032;28;20456;-64
2023/05/19 10:39:18;;;;;;;5.37;2.33;;;20.30;41.70;;;;;;5053895;28;20436;-64
2023/05/19 10:41:57;;;;;;;5.83;2.50;;;20.20;41.30;;;;;;5054819;28;20822;-64
2023/05/19 10:44:37;;;;;;;6.77;2.43;;;20.20;41.40;;;;;;5054351;28;20511;-63
2023/05/19 10:47:06;;;;;;;3.70;2.37;;;20.40;41.30;;;;;;5054070;28;20491;-63
2023/05/19 10:49:35;;;;;;;4.03;2.33;;;20.80;40.80;;;;;;5054529;28;20800;-63
2023/05/19 10:52:02;;;;;;;4.53;1.90;;;21.10;40.30;;;;;;5054076;28;20995;-63
2023/05/19 10:54:45;;;;;;;4.93;2.40;;;21.50;39.50;;;;;;5054479;28;20764;-64
2023/05/19 10:57:15;;;;;;;4.00;2.20;;;21.60;39.00;;;;;;5068900;22;20492;-60
2023/05/19 10:59:43;;;;;;;4.00;2.30;;;21.40;38.40;;;;;;5055236;28;20472;-59
2023/05/19 11:02:10;;;;;;;2.53;1.40;;;21.10;38.80;;;;;;5055015;28;20442;-58
2023/05/19 11:04:46;;;;;;;2.40;1.40;;;21.00;38.90;;;;;;5055451;28;20460;-60
2023/05/19 11:07:17;;;;;;;4.20;2.10;;;20.90;37.70;;;;;;5055448;28;20457;-58
2023/05/19 11:09:50;;;;;;;2.43;1.73;;;20.90;37.70;;;;;;5055391;28;20432;-59
2023/05/19 11:12:21;;;;;;;2.43;1.90;;;21.00;36.80;;;;;;5055139;28;20466;-59
2023/05/19 11:14:48;;;;;;;4.77;2.20;;;21.20;36.40;;;;;;5054804;28;20433;-60
2023/05/19 11:17:15;;;;;;;3.80;1.77;;;21.40;35.70;;;;;;5055631;28;20465;-59
2023/05/19 11:19:53;;;;;;;4.77;1.83;;;21.60;35.60;;;;;;5054429;28;20453;-60
2023/05/19 11:22:24;;;;;;;2.60;1.93;;;21.60;35.70;;;;;;5055688;28;20483;-59
2023/05/19 11:24:54;;;;;;;6.70;4.37;;;21.20;35.50;;;;;;5055096;28;20942;-60
2023/05/19 11:27:24;;;;;;;8.10;2.03;;;20.80;35.70;;;;;;5055184;28;20468;-60
2023/05/19 11:29:52;;;;;;;3.87;2.10;;;20.50;36.00;;;;;;5054879;28;20452;-59
2023/05/19 11:32:21;;;;;;;6.43;2.00;;;20.20;36.30;;;;;;5055103;28;20571;-61
2023/05/19 11:34:49;;;;;;;3.63;1.90;;;20.00;36.80;;;;;;5055483;28;20993;-60
2023/05/19 11:37:16;;;;;;;1.90;1.67;;;20.00;37.00;;;;;;5055662;28;20468;-60
2023/05/19 11:39:43;;;;;;;2.93;2.10;;;20.00;36.70;;;;;;5054749;28;20444;-60
2023/05/19 11:42:12;;;;;;;2.47;1.87;;;20.00;36.60;;;;;;5055180;28;20444;-60
2023/05/19 11:44:39;;;;;;;2.53;1.37;;;19.90;36.50;;;;;;5055383;28;20520;-59
2023/05/19 11:47:07;;;;;;;4.00;2.30;;;19.80;36.60;;;;;;5053684;28;20839;-58
2023/05/19 11:49:34;;;;;;;2.47;1.50;;;19.80;36.70;;;;;;5054553;28;20452;-60
2023/05/19 11:52:01;;;;;;;5.97;2.30;;;19.80;37.30;;;;;;5055157;28;20547;-59
2023/05/19 11:54:32;;;;;;;2.00;1.60;;;20.20;36.80;;;;;;5054146;28;20494;-59
2023/05/19 11:57:01;;;;;;;3.13;1.40;;;20.80;34.50;;;;;;5053944;28;20538;-60
2023/05/19 11:59:34;;;;;;;3.23;1.50;;;21.40;33.90;;;;;;5054408;28;20433;-60
2023/05/19 12:02:18;;;;;;;3.50;1.37;;;22.10;33.10;;;;;;5054457;28;20444;-60
2023/05/19 12:04:45;;;;;;;1.90;1.60;;;22.30;32.30;;;;;;5054683;28;20428;-61
2023/05/19 12:07:14;;;;;;;2.00;1.77;;;22.30;32.30;;;;;;5054536;28;20480;-60
2023/05/19 12:09:41;;;;;;;1.90;1.57;;;22.10;32.60;;;;;;5054766;28;20449;-60
2023/05/19 12:12:08;;;;;;;2.93;1.80;;;21.50;33.00;;;;;;5053847;28;20483;-59
2023/05/19 12:14:37;;;;;;;1.97;1.50;;;21.10;33.60;;;;;;5054406;28;20448;-60
2023/05/19 12:17:11;;;;;;;4.60;1.70;;;20.80;33.70;;;;;;5054010;28;20471;-60
2023/05/19 12:19:39;;;;;;;3.80;1.70;;;21.30;33.60;;;;;;5053596;28;20429;-59
2023/05/19 12:22:07;;;;;;;3.83;1.57;;;21.70;33.00;;;;;;5053155;28;20559;-60
2023/05/19 12:24:34;;;;;;;2.67;1.50;;;21.80;32.70;;;;;;5053150;28;20452;-60
2023/05/19 12:27:12;;;;;;;1.67;1.50;;;21.70;32.90;;;;;;5053037;28;20464;-59
2023/05/19 12:29:40;;;;;;;3.80;1.60;;;21.40;33.20;;;;;;5053446;28;20475;-59
2023/05/19 12:32:08;;;;;;;2.87;1.40;;;21.50;33.10;;;;;;5054770;28;20443;-59
2023/05/19 12:34:36;;;;;;;2.50;1.37;;;21.10;33.60;;;;;;5057267;28;20954;-60
2023/05/19 12:37:04;;;;;;;1.97;1.53;;;20.70;33.20;;;;;;5057796;28;20989;-60
2023/05/19 12:39:31;;;;;;;5.37;1.80;;;20.30;33.80;;;;;;5056831;28;20446;-59
2023/05/19 12:42:02;;;;;;;5.00;1.40;;;20.10;34.20;;;;;;5057336;28;20470;-59
2023/05/19 12:44:30;;;;;;;2.67;1.60;;;20.00;34.40;;;;;;5057763;28;20428;-60
2023/05/19 12:46:59;;;;;;;3.43;1.90;;;19.90;34.80;;;;;;5056913;28;20472;-60
2023/05/19 12:49:26;;;;;;;2.30;1.50;;;19.70;35.00;;;;;;5056938;28;20453;-61
2023/05/19 12:51:53;;;;;;;1.60;1.30;;;19.70;35.40;;;;;;5056969;28;20838;-57
2023/05/19 12:54:20;;;;;;;3.40;1.70;;;19.80;35.50;;;;;;5056778;28;20479;-61
2023/05/19 12:56:51;;;;;;;3.20;1.60;;;20.10;35.40;;;;;;5056493;28;20877;-60
2023/05/19 12:59:22;;;;;;;1.70;1.30;;;20.30;35.10;;;;;;5056548;28;20436;-59